Stations météo

réclame
Mon MeteoGroup
Zinnwald-Georgenfeld, Allemagne (10582): Température de l'air & dewpoint: 17.01.2019 08:00:00 - 23.01.2019 08:00:00 (CET)Zinnwald-Georgenfeld, Allemagne (10582): Température de l'air 5cm & Température de l'air -5cm: 17.01.2019 08:00:00 - 23.01.2019 08:00:00 (CET)Zinnwald-Georgenfeld, Allemagne (10582): Température de l'air -20cm & Température de l'air -100cm: 17.01.2019 08:00:00 - 23.01.2019 08:00:00 (CET)Zinnwald-Georgenfeld, Allemagne (10582): Vitesse du vent & gusts: 17.01.2019 08:00:00 - 23.01.2019 08:00:00 (CET)Zinnwald-Georgenfeld, Allemagne (10582): Direction du vent: 17.01.2019 08:00:00 - 23.01.2019 08:00:00 (CET)Zinnwald-Georgenfeld, Allemagne (10582): visibility: 17.01.2019 08:00:00 - 23.01.2019 08:00:00 (CET)Zinnwald-Georgenfeld, Allemagne (10582): Ensoleillement: 17.01.2019 08:00:00 - 23.01.2019 08:00:00 (CET)Zinnwald-Georgenfeld, Allemagne (10582): Quantités de précipitations: 17.01.2019 08:00:00 - 23.01.2019 08:00:00 (CET)
Date & Time tt [°C] td [°C] tt 5cm [°C] tt -5cm [°C] tt -20cm [°C] tt -100cm [°C] ff [km/h] ff [knt] fx [km/h] fx [knt] dd vv [km] sd [min] rr [mm]
23.01.2019 08:00:00 -12,0 -13,3 -0,1 0,2 0,6 3,2 31 17 44 24 SSE 0,1 0 0,0
23.01.2019 07:00:00 -11,7 -13,0 -0,1 0,2 0,6 3,2 32 17 48 26 SSE 0,1 0 0,0
23.01.2019 06:00:00 -11,5 -12,8 -0,1 0,2 0,6 3,2 31 17 42 23 SSE 0,1 0 0,0
23.01.2019 05:00:00 -10,6 -11,7 -0,1 0,2 0,6 3,2 24 13 43 23 SSE 0,1 0 0,0
23.01.2019 04:00:00 -10,1 -11,3 -0,1 0,2 0,6 3,2 34 18 46 25 SSE 0,8 0 0,0
23.01.2019 03:00:00 -9,8 -11,0 -0,1 0,2 0,6 3,2 33 18 45 24 SSE 1,5 0 0,0
23.01.2019 02:00:00 -9,9 -11,2 -0,1 0,2 0,6 3,2 33 18 42 23 SSE 1,4 0 0,0
23.01.2019 01:00:00 -9,7 -11,0 -0,1 0,2 0,6 3,2 33 18 44 24 SSE 1,0 0 0,0
23.01.2019 00:00:00 -9,6 -10,9 -0,1 0,2 0,6 3,2 32 17 46 25 SSE 3,7 0 0,0
22.01.2019 23:00:00 -9,3 -10,5 -0,1 0,2 0,6 3,2 33 18 44 24 SSE 2,9 0 0,0
22.01.2019 22:00:00 -8,9 -10,0 -0,1 0,2 0,6 3,2 28 15 39 21 S 2,0 0 0,0
22.01.2019 21:00:00 -9,0 -10,1 -0,1 0,2 0,6 3,2 27 15 37 20 S 2,9 0 0,0
22.01.2019 20:00:00 -9,2 -10,3 -0,1 0,2 0,6 3,2 26 14 39 21 SSE 1,4 0 0,0
22.01.2019 19:00:00 -9,3 -10,4 -0,1 0,2 0,6 3,2 26 14 36 19 SSE 0,6 0 0,0
22.01.2019 18:00:00 -9,3 -10,5 -0,1 0,2 0,6 3,2 29 15 39 21 S 0,2 0 0,0
22.01.2019 17:00:00 -9,3 -10,5 -0,1 0,2 0,6 3,2 29 16 39 21 S 0,4 0 0,0
22.01.2019 16:00:00 -9,2 -10,3 -0,1 0,2 0,6 3,2 29 15 39 21 S 1,2 0 0,0
22.01.2019 15:00:00 -8,9 -9,9 -0,1 0,2 0,6 3,2 29 15 37 20 S 0,2 0 0,0
22.01.2019 14:00:00 -8,9 -9,9 -0,1 0,2 0,6 3,2 27 14 36 19 S 0,1 0 0,0
22.01.2019 13:00:00 -8,6 -9,6 -0,1 0,2 0,6 3,2 22 12 28 15 S 0,2 0 0,0
22.01.2019 12:00:00 -8,9 -9,8 -0,1 0,2 0,6 3,2 21 11 29 16 S 0,2 0 0,0
22.01.2019 11:00:00 -9,1 -10,0 -0,1 0,2 0,6 3,2 21 11 27 15 S 0,1 0 0,0
22.01.2019 10:00:00 -9,2 -10,0 -0,1 0,2 0,6 3,2 18 10 24 13 S 0,1 0 0,0
22.01.2019 09:00:00 -9,7 -10,7 -0,1 0,2 0,6 3,2 15 8 26 14 S 0,2 0 0,0
22.01.2019 08:00:00 -9,6 -10,4 -0,1 0,2 0,6 3,2 20 11 26 14 S 0,2 0 0,0
22.01.2019 07:00:00 -10,9 -11,8 -0,1 0,2 0,6 3,2 16 9 19 11 S 0,1 0 0,0
22.01.2019 06:00:00 -10,9 -12,0 -0,1 0,2 0,6 3,2 14 7 19 10 S 2,6 0 0,0
22.01.2019 05:00:00 -10,6 -11,4 -0,1 0,2 0,6 3,2 16 9 23 13 S 0,1 0 0,0
22.01.2019 04:00:00 -9,5 -10,5 -0,1 0,2 0,6 3,2 18 10 23 12 S 3,5 0 0,0
22.01.2019 03:00:00 -9,6 -10,5 -0,1 0,2 0,6 3,2 20 11 24 13 S 2,7 0 0,0
22.01.2019 02:00:00 -9,7 -11,0 -0,1 0,2 0,6 3,2 18 10 21 11 SSW 6 0 0,0
22.01.2019 01:00:00 -8,4 -10,0 -0,2 0,2 0,6 3,2 15 8 22 12 SSW 9 0 0,0
22.01.2019 00:00:00 -8,1 -9,4 -0,2 0,2 0,6 3,2 17 9 27 15 SW 7 0 0,0
21.01.2019 23:00:00 -9,1 -10,0 -0,2 0,2 0,6 3,2 21 11 26 14 SSW 4,1 0 0,0
21.01.2019 22:00:00 -9,6 -10,8 -0,3 0,2 0,6 3,2 17 9 22 12 SW 9 0 0,0
21.01.2019 21:00:00 -10,1 -11,5 -0,2 0,2 0,6 3,2 21 11 22 12 SSW 12 0 0,0
21.01.2019 20:00:00 -10,1 -12,1 -0,3 0,2 0,6 3,2 16 9 18 10 SW 20 0 0,0
21.01.2019 19:00:00 -9,0 -10,5 -0,3 0,2 0,6 3,2 15 8 16 9 SW 18 0 0,0
21.01.2019 18:00:00 -8,1 -9,7 -0,3 0,2 0,6 3,2 10 5 12 7 WSW 12 0 0,0
21.01.2019 17:00:00 -7,7 -9,1 -0,2 0,2 0,6 3,2 9 5 16 9 SSW 4,2 14 0,0
21.01.2019 16:00:00 -6,2 -8,9 -0,2 0,2 0,5 3,2 10 5 12 7 S 8 60 0,0
21.01.2019 15:00:00 -4,2 -7,5 -0,2 0,2 0,5 3,2 8 5 12 6 S 6 60 0,0
21.01.2019 14:00:00 -3,5 -7,0 -0,2 0,2 0,5 3,2 9 5 12 6 SSE 5 60 0,0
21.01.2019 13:00:00 -4,3 -7,3 -0,2 0,2 0,5 3,2 7 4 13 7 S 3,8 60 0,0
21.01.2019 12:00:00 -4,7 -7,6 -0,2 0,2 0,5 3,2 8 5 16 9 SSW 4,7 60 0,0
21.01.2019 11:00:00 -6,5 -8,7 -0,2 0,2 0,5 3,2 13 7 18 10 S 4,2 60 0,0
21.01.2019 10:00:00 -7,7 -9,2 -0,3 0,2 0,6 3,2 13 7 16 9 S 8 60 0,0
21.01.2019 09:00:00 -7,9 -9,4 -0,2 0,2 0,6 3,2 10 5 11 6 SSE 17 21 0,0
21.01.2019 08:00:00 -8,8 -10,2 -0,2 0,2 0,6 3,2 8 4 10 5 E 29 0 0,0
21.01.2019 07:00:00 -9,1 -10,4 -0,2 0,2 0,6 3,2 7 4 10 5 ENE 25 0 0,0
21.01.2019 06:00:00 -8,9 -10,2 -0,2 0,2 0,6 3,2 6 4 10 5 E 32 0 0,0
21.01.2019 05:00:00 -9,6 -10,8 -0,2 0,2 0,6 3,2 8 5 10 6 NE 27 0 0,0
21.01.2019 04:00:00 -9,4 -10,5 -0,3 0,2 0,6 3,2 9 5 10 5 NNE 14 0 0,0
21.01.2019 03:00:00 -9,3 -10,2 -0,2 0,2 0,6 3,2 9 5 10 6 NE 8 0 0,0
21.01.2019 02:00:00 -8,8 -9,8 -0,3 0,2 0,6 3,2 8 4 9 5 NNE 10 0 0,0
21.01.2019 01:00:00 -8,1 -8,8 -0,2 0,2 0,6 3,2 7 4 13 7 NNE 0,5 0 0,0
21.01.2019 00:00:00 -7,8 -8,4 -0,2 0,2 0,6 3,2 7 4 10 6 NNE 0,4 0 0,0
20.01.2019 23:00:00 -7,8 -8,3 -0,2 0,2 0,5 3,3 5 3 10 6 NE 0,2 0 0,0
20.01.2019 22:00:00 -7,4 -8,0 -0,2 0,2 0,5 3,3 7 4 14 8 NE 0,7 0 0,0
20.01.2019 21:00:00 -7,4 -8,2 -0,2 0,2 0,5 3,3 10 5 15 8 E 4,8 0 0,0
20.01.2019 20:00:00 -7,9 -8,7 -0,2 0,2 0,5 3,3 8 4 14 8 NE 4,9 0 0,0
20.01.2019 19:00:00 -8,1 -9,2 -0,2 0,2 0,5 3,3 8 5 12 7 NNE 9 0 0,0
20.01.2019 18:00:00 -7,6 -8,8 -0,2 0,2 0,5 3,3 11 6 14 8 ENE 13 0 0,0
20.01.2019 17:00:00 -8,0 -9,3 -0,2 0,2 0,5 3,3 13 7 15 8 ESE 12 4 0,0
20.01.2019 16:00:00 -7,3 -8,6 -0,3 0,2 0,5 3,3 12 6 23 12 ESE 12 28 0,0
20.01.2019 15:00:00 -6,9 -8,4 -0,2 0,2 0,5 3,3 15 8 21 11 E 12 0 0,0
20.01.2019 14:00:00 -6,8 -8,0 -0,2 0,2 0,5 3,3 12 7 22 12 ESE 8 0 0,0
20.01.2019 13:00:00 -6,7 -7,8 -0,2 0,2 0,5 3,3 9 5 32 17 SE 7 0 0,0
20.01.2019 12:00:00 -6,9 -7,9 -0,2 0,2 0,5 3,3 19 10 32 18 SSE 5 0 0,0
20.01.2019 11:00:00 -7,2 -8,2 -0,2 0,2 0,5 3,3 24 13 35 19 SSE 6 0 0,0
20.01.2019 10:00:00 -7,6 -8,6 -0,2 0,2 0,5 3,3 27 15 37 20 SSE 8 0 0,0
20.01.2019 09:00:00 -8,0 -9,0 -0,2 0,2 0,5 3,3 24 13 38 21 SSE 7 0 0,0
20.01.2019 08:00:00 -8,4 -9,7 -0,3 0,2 0,5 3,3 28 15 38 20 S 9 0 0,0
20.01.2019 07:00:00 -8,2 -9,3 -0,3 0,2 0,5 3,3 29 15 38 20 SSE 8 0 0,0
20.01.2019 06:00:00 -8,1 -9,1 -0,2 0,2 0,5 3,3 25 13 41 22 S 8 0 0,0
20.01.2019 05:00:00 -8,2 -9,0 -0,2 0,2 0,5 3,3 30 16 42 23 S 3,1 0 0,0
20.01.2019 04:00:00 -8,1 -8,7 -0,2 0,2 0,5 3,3 30 16 42 23 SSE 2,0 0 0,0
20.01.2019 03:00:00 -8,2 -8,8 -0,2 0,2 0,5 3,3 29 16 39 21 SSE 1,4 0 0,0
20.01.2019 02:00:00 -8,4 -9,1 -0,2 0,2 0,5 3,3 24 13 33 18 SSE 3,3 0 0,0
20.01.2019 01:00:00 -8,9 -10,1 -0,3 0,2 0,5 3,3 21 11 29 16 SSE 7 0 0,0
20.01.2019 00:00:00 -9,0 -10,3 -0,3 0,2 0,5 3,3 19 11 26 14 SSE 7 0 0,0
19.01.2019 23:00:00 -9,1 -10,3 -0,2 0,2 0,5 3,3 18 10 26 14 SSE 9 0 0,0
19.01.2019 22:00:00 -8,9 -10,3 -0,3 0,2 0,5 3,3 21 11 27 14 SSE 10 0 0,0
19.01.2019 21:00:00 -8,6 -9,8 -0,2 0,2 0,6 3,3 18 10 30 16 SSE 7 0 0,0
19.01.2019 20:00:00 -8,9 -9,9 -0,2 0,2 0,6 3,3 18 10 24 13 SSE 6 0 0,0
19.01.2019 19:00:00 -8,8 -9,7 -0,2 0,2 0,6 3,3 15 8 20 11 SSE 4,4 0 0,0
19.01.2019 18:00:00 -8,4 -9,8 -0,3 0,2 0,6 3,3 16 9 26 14 SSE 12 0 0,0
19.01.2019 17:00:00 -7,6 -10,0 -0,2 0,2 0,6 3,3 19 10 29 15 S 25 11 0,0
19.01.2019 16:00:00 -6,6 -9,7 -0,2 0,2 0,6 3,3 24 13 29 16 S 10 60 0,0
19.01.2019 15:00:00 -5,6 -9,7 -0,2 0,2 0,6 3,3 20 11 29 16 S 5 60 0,0
19.01.2019 14:00:00 -5,4 -10,4 -0,2 0,2 0,6 3,3 21 12 29 16 S 4,0 60 0,0
19.01.2019 13:00:00 -5,7 -9,7 -0,2 0,2 0,6 3,3 22 12 31 17 S 4,3 60 0,0
19.01.2019 12:00:00 -6,0 -9,7 -0,2 0,2 0,6 3,3 23 13 31 17 S 3,6 60 0,0
19.01.2019 11:00:00 -6,5 -10,5 -0,2 0,2 0,6 3,3 19 11 25 13 S 8 60 0,0
19.01.2019 10:00:00 -6,9 -9,9 -0,2 0,2 0,6 3,3 15 8 20 11 SSE 7 60 0,0
19.01.2019 09:00:00 -8,5 -10,3 -0,2 0,2 0,6 3,3 13 7 16 9 SSE 12 16 0,0
19.01.2019 08:00:00 -8,1 -9,3 -0,3 0,2 0,6 3,3 8 4 11 6 SSE 63 0 0,0
19.01.2019 07:00:00 -7,6 -8,9 -0,3 0,2 0,6 3,3 8 4 11 6 SSE 61 0 0,0
19.01.2019 06:00:00 -7,4 -8,2 -0,2 0,2 0,6 3,3 6 3 8 4 SSE 56 0 0,0
19.01.2019 05:00:00 -7,3 -9,3 -0,2 0,2 0,6 3,3 8 4 14 8 SSE 70 0 0,0
19.01.2019 04:00:00 -7,0 -8,7 -0,3 0,2 0,6 3,3 9 5 13 7 S 70 0 0,0
19.01.2019 03:00:00 -7,3 -8,7 -0,3 0,2 0,6 3,3 9 5 14 7 S 67 0 0,0
19.01.2019 02:00:00 -7,4 -8,7 -0,3 0,2 0,6 3,3 2 1 8 5 NNE 64 0 0,0
19.01.2019 01:00:00 -7,7 -9,4 -0,3 0,2 0,6 3,3 7 4 16 9 NW 70 0 0,0
19.01.2019 00:00:00 -8,1 -10,0 -0,3 0,2 0,6 3,3 14 8 18 10 WNW 63 0 0,0
18.01.2019 23:00:00 -8,8 -10,2 -0,2 0,2 0,6 3,3 14 7 18 10 W 40 0 0,0
18.01.2019 22:00:00 -8,5 -10,0 -0,2 0,2 0,6 3,3 15 8 22 12 W 43 0 0,0
18.01.2019 21:00:00 -8,3 -9,9 -0,3 0,2 0,6 3,3 18 10 23 12 WNW 44 0 0,0
18.01.2019 20:00:00 -8,6 -10,4 -0,2 0,2 0,6 3,3 18 10 22 12 W 39 0 0,0
18.01.2019 19:00:00 -8,5 -10,3 -0,2 0,2 0,6 3,3 17 9 23 12 W 38 0 0,0
18.01.2019 18:00:00 -8,5 -10,1 -0,3 0,2 0,6 3,3 19 11 24 13 W 29 0 0,0
18.01.2019 17:00:00 -8,0 -9,4 -0,2 0,2 0,6 3,3 19 10 26 14 W 20 9 0,0
18.01.2019 16:00:00 -6,9 -8,7 -0,2 0,2 0,6 3,3 18 10 33 18 W 10 46 0,0
18.01.2019 15:00:00 -6,9 -8,9 -0,2 0,2 0,6 3,3 24 13 38 20 WNW 16 10 0,0
18.01.2019 14:00:00 -6,2 -8,2 -0,2 0,2 0,6 3,3 24 13 48 26 WNW 10 16 0,0
18.01.2019 13:00:00 -6,3 -7,9 -0,2 0,2 0,6 3,3 29 15 50 27 WNW 8 5 0,0
18.01.2019 12:00:00 -6,6 -7,5 -0,2 0,2 0,6 3,3 26 14 53 29 NW 8 1 0,0
18.01.2019 11:00:00 -6,5 -8,0 -0,2 0,2 0,6 3,3 32 17 55 30 NW 4,5 12 0,1
18.01.2019 10:00:00 -5,8 -6,9 -0,2 0,2 0,6 3,3 30 16 50 27 NW 4,5 0 0,0
18.01.2019 09:00:00 -5,7 -6,8 -0,2 0,2 0,6 3,3 30 16 49 27 NW 2,6 0 0,5
18.01.2019 08:00:00 -5,6 -6,4 -0,2 0,2 0,6 3,3 27 15 57 31 NNW 0,8 0 0,6
18.01.2019 07:00:00 -4,5 -5,4 -0,2 0,2 0,6 3,3 22 12 50 27 NW 0,5 0 0,3
18.01.2019 06:00:00 -4,5 -5,8 -0,2 0,2 0,6 3,3 27 14 51 28 WNW 28 0 0,0
18.01.2019 05:00:00 -4,2 -5,2 -0,2 0,2 0,6 3,3 27 15 50 27 WNW 6 0 0,1
18.01.2019 04:00:00 -4,1 -5,0 -0,2 0,2 0,6 3,3 31 17 57 31 WNW 19 0 0,0
18.01.2019 03:00:00 -3,8 -5,1 -0,3 0,2 0,6 3,3 29 15 56 31 WNW 3,9 0 0,0
18.01.2019 02:00:00 -3,8 -4,6 -0,2 0,2 0,6 3,3 26 14 49 27 WNW 9 0 0,4
18.01.2019 01:00:00 -3,7 -4,7 -0,2 0,2 0,6 3,3 25 13 55 30 WNW 0,6 0 0,2
18.01.2019 00:00:00 -2,6 -3,6 -0,2 0,2 0,6 3,3 25 13 54 29 WNW 13 0 0,1
17.01.2019 23:00:00 -2,5 -3,1 -0,2 0,2 0,6 3,3 25 14 59 32 WNW 21 0 0,0
17.01.2019 22:00:00 -2,2 -2,6 -0,3 0,2 0,6 3,3 30 16 55 30 WNW 0,4 0 0,9
17.01.2019 21:00:00 -1,2 -2,1 -0,2 0,2 0,6 3,3 32 17 55 30 W 0,5 0 0,1
17.01.2019 20:00:00 -0,3 -2,2 -0,3 0,2 0,6 3,3 38 20 65 35 WSW 70 0 0,0
17.01.2019 19:00:00 -0,3 -2,1 -0,3 0,2 0,6 3,3 29 16 54 29 WSW 70 0 0,0
17.01.2019 18:00:00 -0,1 -1,7 -0,2 0,2 0,6 3,3 30 16 50 27 SW 70 0 0,0
17.01.2019 17:00:00 0,4 -0,9 -0,2 0,2 0,6 3,3 27 15 52 28 WSW 70 0 0,0
17.01.2019 16:00:00 0,6 -0,3 -0,2 0,2 0,6 3,3 21 11 34 18 WSW 41 4 0,0
17.01.2019 15:00:00 0,5 0,0 -0,2 0,2 0,6 3,3 22 12 32 18 SW 35 0 0,1
17.01.2019 14:00:00 0,5 0,0 -0,2 0,2 0,6 3,3 19 10 35 19 SW 12 0 0,0
17.01.2019 13:00:00 0,6 0,0 -0,2 0,2 0,6 3,3 26 14 39 21 SW 21 0 0,0
17.01.2019 12:00:00 0,3 -0,1 -0,2 0,2 0,6 3,3 23 12 35 19 SW 6 0 0,3
17.01.2019 11:00:00 0,3 -0,2 -0,2 0,2 0,6 3,3 25 14 39 21 WSW 4,5 0 0,1
17.01.2019 10:00:00 0,4 -0,7 -0,2 0,2 0,6 3,3 29 16 46 25 SW 53 0 0,0
17.01.2019 09:00:00 0,2 -0,8 -0,3 0,2 0,6 3,3 26 14 48 26 WSW 39 0 0,0
17.01.2019 08:00:00 -0,1 -1,0 -0,3 0,2 0,6 3,3 31 17 53 29 WSW 24 0 0,1

tt = Température de l'air
td = dewpoint
tt 5cm = Température de l'air 5cm
tt -5cm = Température de l'air -5cm
tt -20cm = Température de l'air -20cm
tt -100cm = Température de l'air -100cm
ff = Vitesse du vent
fx = gusts
dd = Direction du vent
vv = visibility
sd = Ensoleillement
rr = Quantités de précipitations

stations d'obs. à proximité